Time;durP1;ratioP1;P1;durP2;ratioP2;P2;SDS_P1;SDS_P2;PMS_P1;PMS_P2;Temp;Humidity;BMP_temperature;BMP_pressure;BME280_temperature;BME280_humidity;BME280_pressure;Samples;Min_cycle;Max_cycle;Signal;HPM_P1;HPM_P2
2021/06/25 00:01:08;;;;;;;8.25;5.28;;;15.50;99.90;;;15.23;80.81;101947.59;4138878;28;20033;-68
2021/06/25 00:03:09;;;;;;;6.50;5.55;;;15.60;99.90;;;15.13;81.54;101946.91;4138874;28;20054;-68
2021/06/25 00:05:10;;;;;;;5.30;4.80;;;15.50;99.90;;;15.15;81.59;101950.22;4138409;28;20062;-68
2021/06/25 00:07:11;;;;;;;5.75;4.93;;;15.50;99.90;;;15.18;81.53;101939.28;4138651;28;20058;-68
2021/06/25 00:09:12;;;;;;;7.47;5.30;;;15.50;99.90;;;15.13;81.62;101938.09;4137630;28;20023;-68
2021/06/25 00:11:13;;;;;;;8.55;5.80;;;15.50;99.90;;;15.14;81.95;101942.41;4137584;28;20037;-68
2021/06/25 00:13:14;;;;;;;7.93;5.63;;;15.50;99.90;;;15.09;82.01;101934.91;4138712;28;20027;-68
2021/06/25 00:15:16;;;;;;;7.47;5.20;;;15.50;99.90;;;15.10;82.22;101938.41;4137208;28;20030;-68
2021/06/25 00:17:17;;;;;;;6.88;5.32;;;15.40;99.90;;;15.06;82.57;101939.69;4138724;28;20118;-68
2021/06/25 00:19:20;;;;;;;6.18;5.10;;;15.40;99.90;;;14.97;83.06;101930.81;4153556;28;20095;-68
2021/06/25 00:21:21;;;;;;;6.57;5.40;;;15.40;99.90;;;15.03;83.09;101940.84;4137089;28;20085;-68
2021/06/25 00:23:21;;;;;;;6.90;5.13;;;15.40;99.90;;;14.92;83.20;101925.16;4138347;28;20027;-68
2021/06/25 00:25:24;;;;;;;7.18;4.65;;;15.30;99.90;;;14.97;84.16;101922.84;4137294;28;20030;-68
2021/06/25 00:27:25;;;;;;;6.53;5.32;;;15.30;99.90;;;15.07;84.49;101926.25;4153512;28;20030;-68
2021/06/25 00:29:26;;;;;;;6.82;5.32;;;15.30;99.90;;;15.00;84.92;101937.66;4138463;28;20026;-68
2021/06/25 00:31:27;;;;;;;8.05;6.00;;;15.30;99.90;;;14.84;85.05;101919.78;4138326;28;20070;-68
2021/06/25 00:33:29;;;;;;;10.60;5.75;;;15.30;99.90;;;14.96;84.69;101935.31;4137294;28;20030;-68
2021/06/25 00:35:30;;;;;;;10.90;6.43;;;15.20;99.90;;;14.94;84.50;101920.50;4138125;28;20061;-68
2021/06/25 00:37:31;;;;;;;7.32;5.35;;;15.30;99.90;;;15.00;84.64;101932.34;4137088;28;20030;-68
2021/06/25 00:39:32;;;;;;;7.88;5.25;;;15.30;99.90;;;14.94;84.25;101918.69;4138162;28;20026;-68
2021/06/25 00:41:33;;;;;;;5.38;4.78;;;15.20;99.90;;;14.95;84.58;101916.88;4136931;28;20104;-68
2021/06/25 00:43:36;;;;;;;4.78;4.28;;;15.30;99.90;;;14.94;84.72;101916.03;4153192;28;20112;-68
2021/06/25 00:45:37;;;;;;;6.72;5.07;;;15.20;99.90;;;14.92;84.98;101918.03;4138058;28;20026;-68
2021/06/25 00:47:39;;;;;;;8.60;5.07;;;15.20;99.90;;;14.98;84.55;101910.41;4136809;28;20521;-68
2021/06/25 00:49:40;;;;;;;6.40;4.93;;;15.20;99.90;;;14.86;85.16;101901.88;4136998;28;20023;-68
2021/06/25 00:51:41;;;;;;;5.35;4.85;;;15.10;99.90;;;14.62;85.72;101893.72;4136528;28;20081;-68
2021/06/25 00:53:43;;;;;;;7.63;5.60;;;15.10;99.90;;;14.65;86.22;101907.53;4153027;28;20037;-68
2021/06/25 00:55:44;;;;;;;7.55;5.30;;;15.00;99.90;;;14.58;86.85;101900.31;4152886;28;20133;-68
2021/06/25 00:57:46;;;;;;;8.23;4.88;;;14.90;99.90;;;14.69;86.82;101900.94;4136779;28;20084;-68
2021/06/25 00:59:47;;;;;;;6.35;5.13;;;14.90;99.90;;;14.59;86.90;101904.66;4153104;28;20029;-68
2021/06/25 01:01:48;;;;;;;8.32;5.35;;;14.90;99.90;;;14.49;87.44;101890.59;4137942;28;20041;-68
2021/06/25 01:03:49;;;;;;;7.35;4.75;;;14.80;99.90;;;14.54;87.09;101891.00;4136455;28;20101;-68
2021/06/25 01:05:50;;;;;;;5.50;4.43;;;14.80;99.90;;;14.46;87.46;101898.88;4152550;28;20065;-68
2021/06/25 01:07:51;;;;;;;9.23;5.60;;;14.70;99.90;;;14.46;87.77;101899.72;4137552;28;20027;-68
2021/06/25 01:09:53;;;;;;;5.97;4.78;;;14.80;99.90;;;14.41;87.59;101891.38;4137838;28;20105;-68
2021/06/25 01:11:54;;;;;;;7.53;4.68;;;14.70;99.90;;;14.47;87.24;101890.78;4120299;28;20403;-68
2021/06/25 01:13:55;;;;;;;8.50;6.32;;;14.70;99.90;;;14.33;87.18;101880.72;4136643;28;20027;-68
2021/06/25 01:15:56;;;;;;;8.13;5.70;;;14.70;99.90;;;14.35;87.47;101884.88;4136622;28;20038;-68
2021/06/25 01:17:57;;;;;;;6.47;5.70;;;14.60;99.90;;;14.34;87.34;101893.81;4136638;28;20026;-68
2021/06/25 01:20:01;;;;;;;7.80;5.95;;;14.60;99.90;;;14.18;87.80;101880.38;4137579;28;20034;-68
2021/06/25 01:22:02;;;;;;;6.30;5.22;;;14.50;99.90;;;14.06;89.27;101886.91;4136469;28;20085;-68
2021/06/25 01:24:03;;;;;;;8.10;5.82;;;14.40;99.90;;;14.00;89.59;101876.88;4136335;28;20034;-68
2021/06/25 01:26:04;;;;;;;9.93;6.22;;;14.40;99.90;;;13.98;90.21;101894.75;4136315;28;20023;-68
2021/06/25 01:28:11;;;;;;;6.10;5.35;;;14.30;99.90;;;14.01;90.34;101889.13;4136227;28;20110;-68
2021/06/25 01:30:29;;;;;;;6.18;5.57;;;14.40;99.90;;;14.15;89.70;101891.28;4136702;28;20018;-68
2021/06/25 01:32:30;;;;;;;7.75;5.88;;;14.40;99.90;;;14.09;89.80;101883.94;4137554;28;20026;-68
2021/06/25 01:34:31;;;;;;;9.32;5.70;;;14.40;99.90;;;14.09;89.82;101886.59;4136238;28;20026;-68
2021/06/25 01:36:32;;;;;;;7.25;5.53;;;14.40;99.90;;;14.20;90.08;101890.81;4152023;28;20064;-68
2021/06/25 01:38:35;;;;;;;8.73;5.43;;;14.50;99.90;;;14.12;89.95;101875.69;4120012;28;20598;-68
2021/06/25 01:40:37;;;;;;;8.70;5.70;;;14.50;99.90;;;14.13;90.66;101882.63;4136085;28;20126;-68
2021/06/25 01:42:40;;;;;;;7.57;5.80;;;14.50;99.90;;;14.18;90.37;101874.22;4137184;28;20037;-68
2021/06/25 01:44:41;;;;;;;8.27;6.47;;;14.50;99.90;;;14.24;90.09;101873.63;4136045;28;20037;-67
2021/06/25 01:46:43;;;;;;;6.97;6.05;;;14.50;99.90;;;14.20;89.97;101872.25;4136137;28;20037;-67
2021/06/25 01:48:44;;;;;;;7.88;6.07;;;14.60;99.90;;;14.20;89.60;101875.75;4152195;28;20093;-67
2021/06/25 01:50:45;;;;;;;9.77;5.97;;;14.60;99.90;;;14.22;89.80;101881.72;4151920;28;20034;-68
2021/06/25 01:52:56;;;;;;;7.57;5.90;;;14.60;99.90;;;14.32;89.40;101871.91;4137036;28;20038;-68
2021/06/25 01:54:57;;;;;;;8.80;7.13;;;14.60;99.90;;;14.25;89.51;101873.47;4135927;28;20057;-67
2021/06/25 01:56:58;;;;;;;7.25;6.03;;;14.60;99.90;;;14.16;90.48;101866.41;4137089;28;20030;-68
2021/06/25 01:58:59;;;;;;;8.68;6.60;;;14.50;99.90;;;14.15;90.67;101864.75;4136900;28;20497;-67
2021/06/25 02:01:18;;;;;;;8.38;5.40;;;14.50;99.90;;;14.18;90.34;101864.47;4135670;28;20030;-68
2021/06/25 02:03:18;;;;;;;8.32;6.10;;;14.50;99.90;;;14.17;90.52;101868.09;4135729;28;20104;-67
2021/06/25 02:05:19;;;;;;;7.00;5.80;;;14.50;99.90;;;14.22;90.31;101863.16;4136560;28;20039;-68
2021/06/25 02:07:20;;;;;;;10.23;6.28;;;14.50;99.90;;;14.29;89.96;101856.25;4135576;28;20081;-68
2021/06/25 02:09:21;;;;;;;6.75;6.00;;;14.60;99.90;;;14.32;89.87;101853.31;4135704;28;20552;-67
2021/06/25 02:11:23;;;;;;;8.70;6.25;;;14.50;99.90;;;14.19;90.25;101844.88;4136895;28;20030;-68
2021/06/25 02:13:24;;;;;;;7.32;6.50;;;14.50;99.90;;;14.15;90.29;101848.84;4136820;28;20058;-68
2021/06/25 02:15:25;;;;;;;6.88;6.03;;;14.50;99.90;;;14.12;90.50;101846.50;4135420;28;20038;-67
2021/06/25 02:17:26;;;;;;;7.97;5.65;;;14.50;99.90;;;14.18;90.48;101840.56;4151794;28;20037;-68
2021/06/25 02:19:27;;;;;;;7.68;6.47;;;14.50;99.90;;;14.29;90.09;101839.50;4151019;28;20030;-67
2021/06/25 02:21:28;;;;;;;8.70;7.65;;;14.50;99.90;;;14.23;90.50;101829.47;4135097;28;20089;-68
2021/06/25 02:23:29;;;;;;;9.20;5.68;;;14.50;99.90;;;14.16;91.12;101834.56;4135316;28;20040;-68
2021/06/25 02:25:30;;;;;;;8.75;6.57;;;14.50;99.90;;;14.22;91.23;101839.25;4135324;28;20482;-67
2021/06/25 02:27:31;;;;;;;8.52;6.60;;;14.50;99.90;;;14.20;91.18;101837.75;4136631;28;20516;-68
2021/06/25 02:29:33;;;;;;;8.52;6.10;;;14.40;99.90;;;14.16;90.83;101818.63;4135386;28;20034;-67
2021/06/25 02:31:34;;;;;;;7.53;6.13;;;14.50;99.90;;;14.18;91.09;101827.31;4151461;28;20033;-67
2021/06/25 02:33:35;;;;;;;8.73;6.72;;;14.50;99.90;;;14.13;91.24;101823.41;4136566;28;20110;-68
2021/06/25 02:35:35;;;;;;;7.55;6.35;;;14.50;99.90;;;13.99;91.26;101803.56;4136198;28;20080;-68
2021/06/25 02:37:37;;;;;;;8.02;6.88;;;14.40;99.90;;;14.17;91.12;101814.16;4135258;28;20039;-67
2021/06/25 02:39:38;;;;;;;9.27;6.70;;;14.50;99.90;;;14.20;91.15;101814.72;4151535;28;20173;-67
2021/06/25 02:41:41;;;;;;;10.57;6.93;;;14.50;99.90;;;14.29;90.45;101816.44;4151255;28;20172;-67
2021/06/25 02:43:41;;;;;;;9.27;6.20;;;14.50;99.90;;;14.30;90.28;101814.63;4136388;28;20038;-67
2021/06/25 02:45:42;;;;;;;8.27;6.43;;;14.50;99.90;;;14.27;90.75;101818.41;4136155;28;20107;-68
2021/06/25 02:47:44;;;;;;;9.00;7.10;;;14.60;99.90;;;14.25;90.89;101814.22;4136202;28;20448;-67
2021/06/25 02:49:45;;;;;;;6.65;5.55;;;14.60;99.90;;;14.31;90.14;101816.28;4136337;28;20022;-67
2021/06/25 02:51:46;;;;;;;8.45;6.40;;;14.60;99.90;;;14.28;90.33;101813.91;4135992;28;20030;-67
2021/06/25 02:53:47;;;;;;;10.23;6.88;;;14.60;99.90;;;14.26;90.34;101805.28;4136184;28;20027;-68
2021/06/25 02:55:51;;;;;;;7.07;5.95;;;14.60;99.90;;;14.12;90.87;101797.88;4136010;28;20026;-68
2021/06/25 02:57:52;;;;;;;;;;;14.50;99.90;;;14.14;90.90;101801.22;4135481;28;20030;-68
2021/06/25 02:59:53;;;;;;;7.03;5.75;;;14.50;99.90;;;14.15;90.89;101803.72;4136189;28;19917;-67
2021/06/25 03:01:54;;;;;;;7.35;5.57;;;14.50;99.90;;;14.08;91.72;101794.69;4136096;28;20026;-68
2021/06/25 03:03:55;;;;;;;8.05;6.07;;;14.50;99.90;;;14.13;91.92;101807.50;4135920;28;20030;-67
2021/06/25 03:05:56;;;;;;;8.10;5.75;;;14.50;99.90;;;14.09;91.97;101804.34;4135779;28;20030;-68
2021/06/25 03:07:57;;;;;;;8.43;5.75;;;14.40;99.90;;;14.15;91.06;101797.56;4136126;28;20022;-67
2021/06/25 03:09:58;;;;;;;8.23;5.75;;;14.50;99.90;;;14.08;91.79;101804.47;4134865;28;20145;-68
2021/06/25 03:11:58;;;;;;;6.75;5.13;;;14.40;99.90;;;14.07;91.83;101806.28;4135922;28;20069;-68
2021/06/25 03:13:59;;;;;;;7.40;5.82;;;14.40;99.90;;;14.08;91.59;101796.50;4136102;28;20030;-67
2021/06/25 03:16:00;;;;;;;7.85;5.40;;;14.40;99.90;;;14.02;91.45;101789.16;4135062;28;20030;-68
2021/06/25 03:18:01;;;;;;;8.88;6.20;;;14.30;99.90;;;14.11;90.55;101791.75;4136000;28;20034;-68
2021/06/25 03:20:04;;;;;;;6.05;5.20;;;14.30;99.90;;;14.09;90.64;101804.34;4134345;28;20046;-67
2021/06/25 03:22:06;;;;;;;6.80;5.35;;;14.30;99.90;;;14.05;91.09;101805.63;4151308;28;20026;-68
2021/06/25 03:24:09;;;;;;;7.28;5.90;;;14.30;99.90;;;13.96;91.08;101806.53;4135903;28;20091;-68
2021/06/25 03:26:10;;;;;;;7.53;5.50;;;14.20;99.90;;;13.96;91.49;101811.84;4134749;28;20037;-68
2021/06/25 03:28:11;;;;;;;8.25;5.93;;;14.20;99.90;;;13.91;91.50;101798.19;4135830;28;20030;-68
2021/06/25 03:30:12;;;;;;;10.50;5.60;;;14.20;99.90;;;13.83;91.27;101787.50;4134733;28;20408;-67
2021/06/25 03:32:13;;;;;;;7.07;5.57;;;14.10;99.90;;;13.93;91.15;101798.03;4151184;28;20060;-67
2021/06/25 03:34:14;;;;;;;6.72;5.93;;;14.10;99.90;;;13.86;90.96;101790.69;4135912;28;20030;-67
2021/06/25 03:36:15;;;;;;;7.95;6.20;;;14.10;99.90;;;13.89;91.12;101808.09;4134262;28;20102;-68
2021/06/25 03:38:16;;;;;;;9.18;7.38;;;14.10;99.90;;;13.68;91.65;101796.97;4135916;28;20109;-68
2021/06/25 03:40:17;;;;;;;7.32;6.47;;;14.10;99.90;;;13.71;91.70;101794.84;4134504;28;20029;-68
2021/06/25 03:42:18;;;;;;;7.05;6.00;;;14.00;99.90;;;13.64;92.41;101792.97;4150665;28;20065;-67
2021/06/25 03:44:19;;;;;;;8.95;6.40;;;14.00;99.90;;;13.65;93.02;101786.69;4131647;28;20492;-68
2021/06/25 03:46:22;;;;;;;8.60;7.35;;;14.00;99.90;;;13.55;92.96;101759.41;4135840;28;20026;-68
2021/06/25 03:48:23;;;;;;;7.68;6.35;;;14.00;99.90;;;13.72;93.36;101782.44;4135820;28;20027;-67
2021/06/25 03:50:24;;;;;;;6.95;5.88;;;14.10;99.90;;;13.74;93.98;101781.28;4134295;28;20456;-67
2021/06/25 03:52:26;;;;;;;7.80;5.70;;;14.10;99.90;;;13.81;93.84;101786.81;4150790;28;20022;-68
2021/06/25 03:54:27;;;;;;;8.98;7.72;;;14.20;99.90;;;13.89;93.71;101788.72;4134673;28;20050;-68
2021/06/25 03:56:28;;;;;;;9.77;6.85;;;14.30;99.90;;;13.98;93.70;101785.97;4134618;28;20027;-68
2021/06/25 03:58:29;;;;;;;8.52;6.85;;;14.30;99.90;;;13.99;94.04;101789.47;4135717;28;20114;-67
2021/06/25 04:00:29;;;;;;;8.25;6.95;;;14.30;99.90;;;13.83;94.55;101784.84;4135454;28;20026;-68
2021/06/25 04:02:30;;;;;;;8.70;7.38;;;14.30;99.90;;;13.87;93.89;101770.31;4135649;28;20022;-67
2021/06/25 04:04:31;;;;;;;7.30;5.72;;;14.30;99.90;;;13.91;94.45;101771.69;4134408;28;20061;-68
2021/06/25 04:06:32;;;;;;;7.22;6.40;;;14.30;99.90;;;13.99;94.30;101773.56;4135341;28;20073;-67
2021/06/25 04:08:34;;;;;;;10.20;6.70;;;14.40;99.90;;;14.02;93.47;101757.31;4135516;28;20034;-68
2021/06/25 04:10:35;;;;;;;12.80;6.45;;;14.50;99.90;;;14.14;93.58;101775.50;4135399;28;20038;-68
2021/06/25 04:12:38;;;;;;;8.20;6.53;;;14.50;99.90;;;14.15;93.45;101757.78;4135515;28;20026;-68
2021/06/25 04:14:39;;;;;;;7.70;6.13;;;14.50;99.90;;;14.21;93.66;101773.09;4134293;28;20066;-67
2021/06/25 04:16:40;;;;;;;8.93;6.53;;;14.60;99.90;;;14.30;93.13;101766.84;4135495;28;20445;-68
2021/06/25 04:18:41;;;;;;;7.65;6.03;;;14.60;99.90;;;14.32;92.85;101767.50;4135379;28;20029;-68
2021/06/25 04:20:43;;;;;;;7.13;6.32;;;14.60;99.90;;;14.40;92.47;101767.59;4134085;28;20034;-68
2021/06/25 04:22:45;;;;;;;7.55;6.15;;;14.70;99.90;;;14.41;92.34;101758.66;4150599;28;20519;-68
2021/06/25 04:24:47;;;;;;;7.97;6.10;;;14.70;99.90;;;14.44;92.32;101761.00;4135304;28;20077;-68
2021/06/25 04:26:48;;;;;;;8.27;5.85;;;14.80;99.90;;;14.45;92.33;101761.84;4134274;28;20157;-68
2021/06/25 04:28:49;;;;;;;9.50;5.97;;;14.80;99.90;;;14.48;92.50;101761.53;4135439;28;20030;-68
2021/06/25 04:30:50;;;;;;;7.53;6.10;;;14.90;99.90;;;14.50;92.10;101755.06;4135460;28;20030;-67
2021/06/25 04:32:52;;;;;;;11.30;7.03;;;14.90;99.90;;;14.55;92.07;101766.03;4134201;28;20033;-67
2021/06/25 04:34:53;;;;;;;9.38;6.07;;;14.90;99.90;;;14.61;91.55;101760.09;4134213;28;20107;-68
2021/06/25 04:36:54;;;;;;;9.30;6.93;;;15.00;99.90;;;14.77;90.30;101767.31;4150337;28;20066;-68
2021/06/25 04:38:55;;;;;;;7.13;5.93;;;15.00;99.90;;;14.68;91.46;101774.41;4134234;28;20093;-68
2021/06/25 04:40:57;;;;;;;8.25;6.03;;;15.10;99.90;;;14.67;91.11;101748.00;4133757;28;20058;-68
2021/06/25 04:42:58;;;;;;;6.68;4.80;;;15.10;99.90;;;14.75;91.23;101769.31;4135170;28;20085;-68
2021/06/25 04:44:59;;;;;;;7.72;5.85;;;15.10;99.90;;;14.90;90.50;101781.81;4137086;28;20387;-67
2021/06/25 04:47:00;;;;;;;6.72;5.28;;;15.20;99.90;;;14.95;89.44;101773.41;4137140;28;20053;-67
2021/06/25 04:49:02;;;;;;;9.10;5.70;;;15.20;99.90;;;15.06;89.12;101775.75;4136937;28;20113;-67
2021/06/25 04:51:03;;;;;;;7.57;5.32;;;15.30;99.90;;;14.92;89.13;101771.91;4137751;28;20030;-68
2021/06/25 04:53:05;;;;;;;9.57;6.22;;;15.30;99.90;;;14.84;89.86;101774.50;4137119;28;20069;-67
2021/06/25 04:55:08;;;;;;;7.47;6.03;;;15.30;99.90;;;14.90;89.92;101784.47;4153119;28;20611;-67
2021/06/25 04:57:09;;;;;;;6.07;5.32;;;15.30;99.90;;;14.80;90.63;101773.16;4138123;28;20382;-68
2021/06/25 04:59:10;;;;;;;7.72;5.55;;;15.30;99.90;;;14.75;91.41;101769.31;4136627;28;20063;-68
2021/06/25 05:01:11;;;;;;;6.45;5.45;;;15.20;99.90;;;14.70;91.75;101766.28;4138181;28;20022;-68
2021/06/25 05:03:12;;;;;;;7.75;5.72;;;15.20;99.90;;;14.74;92.16;101778.28;4136852;28;20397;-68
2021/06/25 05:05:14;;;;;;;8.60;5.90;;;15.20;99.90;;;14.75;92.00;101771.97;4136461;28;20058;-68
2021/06/25 05:07:15;;;;;;;8.38;6.75;;;15.20;99.90;;;14.76;91.89;101768.31;4136808;28;20054;-68
2021/06/25 05:09:16;;;;;;;8.77;5.47;;;15.30;99.90;;;14.81;92.01;101774.81;4136876;28;20034;-68
2021/06/25 05:11:17;;;;;;;7.95;6.13;;;15.30;99.90;;;14.80;92.53;101764.34;4137846;28;20021;-67
2021/06/25 05:13:18;;;;;;;8.52;6.57;;;15.30;99.90;;;14.95;92.00;101781.38;4136726;28;20429;-68
2021/06/25 05:15:22;;;;;;;8.60;6.90;;;15.40;99.90;;;14.81;92.29;101771.34;4137652;28;20041;-68
2021/06/25 05:17:26;;;;;;;;;;;15.40;99.90;;;14.90;92.20;101771.19;4138243;28;20042;-67
2021/06/25 05:19:27;;;;;;;7.50;6.68;;;15.40;99.90;;;15.05;90.77;101773.28;4136661;28;19910;-68
2021/06/25 05:21:28;;;;;;;8.60;6.32;;;15.50;99.90;;;15.09;90.61;101772.78;4136227;28;20034;-68
2021/06/25 05:23:29;;;;;;;7.88;6.35;;;15.60;99.90;;;15.14;90.70;101770.47;4136375;28;20034;-68
2021/06/25 05:25:30;;;;;;;7.85;6.32;;;15.70;99.90;;;15.22;90.90;101775.84;4137617;28;20487;-68
2021/06/25 05:27:31;;;;;;;7.38;5.97;;;15.70;99.90;;;15.24;91.05;101775.66;4137671;28;20478;-67
2021/06/25 05:29:32;;;;;;;8.05;6.57;;;15.80;99.90;;;15.36;90.95;101772.53;4136433;28;20026;-67
2021/06/25 05:31:33;;;;;;;8.43;5.70;;;15.90;99.90;;;15.45;90.19;101771.56;4137435;28;20082;-68
2021/06/25 05:33:34;;;;;;;8.90;6.53;;;15.90;99.90;;;15.60;89.66;101776.28;4136417;28;20034;-68
2021/06/25 05:35:35;;;;;;;10.20;6.63;;;16.00;99.90;;;15.57;90.14;101773.94;4152314;28;20506;-67
2021/06/25 05:37:36;;;;;;;8.43;5.82;;;16.20;99.90;;;15.58;90.95;101765.00;4152697;28;20090;-67
2021/06/25 05:39:37;;;;;;;8.90;6.05;;;16.20;99.90;;;15.71;90.93;101776.00;4136105;28;20030;-68
2021/06/25 05:41:38;;;;;;;9.15;6.20;;;16.30;99.90;;;15.85;90.39;101770.00;4137505;28;20070;-68
2021/06/25 05:43:39;;;;;;;7.07;5.32;;;16.40;99.90;;;15.95;89.76;101768.84;4136092;28;20034;-68
2021/06/25 05:45:41;;;;;;;7.95;5.30;;;16.50;99.90;;;16.00;89.27;101761.22;4137142;28;20046;-68
2021/06/25 05:47:42;;;;;;;6.47;4.97;;;16.50;99.90;;;16.12;89.04;101768.84;4135989;28;20026;-68
2021/06/25 05:49:43;;;;;;;9.00;5.95;;;16.70;99.90;;;16.02;89.55;101750.38;4137318;28;20034;-68
2021/06/25 05:51:44;;;;;;;7.03;6.32;;;16.70;99.90;;;16.13;89.86;101759.88;4135839;28;20044;-68
2021/06/25 05:53:45;;;;;;;7.75;5.60;;;16.80;99.90;;;16.25;89.12;101753.19;4136660;28;20521;-67
2021/06/25 05:55:46;;;;;;;8.80;6.57;;;16.90;99.90;;;16.10;89.92;101754.91;4135325;28;20034;-68
2021/06/25 05:57:47;;;;;;;9.07;5.90;;;16.90;99.90;;;16.23;89.71;101764.03;4136035;28;20076;-68
2021/06/25 05:59:48;;;;;;;8.85;5.78;;;17.00;99.90;;;16.33;89.53;101762.03;4135944;28;20097;-67
2021/06/25 06:01:49;;;;;;;9.15;6.07;;;17.00;99.90;;;16.41;88.85;101764.66;4135931;28;20030;-68
2021/06/25 06:03:50;;;;;;;6.55;5.60;;;17.10;99.90;;;16.58;88.01;101760.16;4137006;28;20034;-67
2021/06/25 06:05:51;;;;;;;6.15;5.35;;;17.20;99.90;;;16.62;87.97;101756.16;4136846;28;20031;-68
2021/06/25 06:07:52;;;;;;;7.47;5.47;;;17.30;99.90;;;16.74;87.82;101753.97;4137258;28;20474;-68
2021/06/25 06:09:53;;;;;;;5.97;5.38;;;17.50;99.90;;;16.90;87.38;101757.41;4136955;28;20019;-68
2021/06/25 06:11:54;;;;;;;6.78;6.05;;;17.60;99.90;;;17.03;87.28;101755.00;4136854;28;20361;-68
2021/06/25 06:13:55;;;;;;;8.60;5.25;;;17.80;99.90;;;17.16;86.74;101757.13;4136870;28;20058;-68
2021/06/25 06:15:57;;;;;;;7.47;5.60;;;17.90;99.90;;;17.27;86.45;101756.72;4136916;28;20038;-68
2021/06/25 06:18:00;;;;;;;7.20;5.10;;;18.00;99.90;;;17.36;86.05;101752.16;4136852;28;20026;-68
2021/06/25 06:20:01;;;;;;;7.83;5.90;;;18.10;99.90;;;17.34;86.21;101752.38;4135175;28;20034;-68
2021/06/25 06:31:21;;;;;;;6.85;4.38;;;18.20;99.90;;;17.13;89.69;101760.13;4135522;28;20037;-68
2021/06/25 06:33:29;;;;;;;7.68;5.30;;;18.20;99.90;;;17.08;90.05;101759.84;4135302;28;20121;-68
2021/06/25 06:35:30;;;;;;;6.38;4.35;;;18.30;99.90;;;17.23;90.30;101766.09;4135825;28;20488;-68
2021/06/25 06:37:31;;;;;;;6.20;4.30;;;18.40;99.90;;;16.67;91.98;101760.97;4135387;28;20030;-68
2021/06/25 06:39:32;;;;;;;7.20;4.30;;;18.30;99.90;;;17.00;91.08;101762.53;4135153;28;20030;-68
2021/06/25 06:41:34;;;;;;;6.28;4.13;;;18.20;99.90;;;17.22;88.04;101767.09;4151289;28;20081;-68
2021/06/25 06:43:38;;;;;;;6.15;3.83;;;18.30;99.90;;;17.46;87.68;101771.47;4151353;28;20040;-68
2021/06/25 06:45:40;;;;;;;3.78;3.38;;;18.40;99.90;;;17.55;87.54;101776.63;4136275;28;20444;-68
2021/06/25 06:47:41;;;;;;;5.25;3.38;;;18.30;99.90;;;17.60;86.88;101773.41;4136197;28;20022;-68
2021/06/25 06:49:42;;;;;;;8.75;3.97;;;18.40;99.90;;;17.28;88.44;101769.06;4136417;28;20018;-68
2021/06/25 06:51:44;;;;;;;5.80;3.83;;;18.30;99.90;;;17.34;88.29;101772.88;4134809;28;20066;-68
2021/06/25 06:53:46;;;;;;;4.43;3.13;;;18.30;99.90;;;17.40;88.88;101766.84;4151209;28;20022;-67
2021/06/25 06:55:47;;;;;;;5.20;4.00;;;18.30;99.90;;;17.54;88.06;101764.28;4135025;28;20023;-68
2021/06/25 06:57:48;;;;;;;5.03;3.65;;;18.30;99.90;;;17.67;87.55;101772.53;4135180;28;20042;-68
2021/06/25 06:59:48;;;;;;;4.13;3.72;;;18.40;99.90;;;17.73;88.09;101778.16;4135019;28;20038;-68
2021/06/25 07:01:49;;;;;;;7.35;3.95;;;18.40;99.90;;;17.72;88.46;101779.16;4136148;28;20027;-68
2021/06/25 07:03:50;;;;;;;5.07;4.10;;;18.40;99.90;;;17.62;88.55;101777.56;4150994;28;20026;-68
2021/06/25 07:05:51;;;;;;;5.28;3.85;;;18.40;99.90;;;17.57;88.88;101771.91;4135359;28;20038;-67
2021/06/25 07:07:52;;;;;;;6.20;3.85;;;18.30;99.90;;;17.59;89.11;101772.56;4134896;28;20039;-68
2021/06/25 07:09:53;;;;;;;5.80;4.80;;;18.30;99.90;;;17.45;90.14;101767.97;4136165;28;20049;-68
2021/06/25 07:11:54;;;;;;;5.03;4.03;;;18.20;99.90;;;17.32;91.24;101753.56;4134741;28;20034;-68
2021/06/25 07:13:55;;;;;;;6.30;4.63;;;18.20;99.90;;;17.36;91.73;101773.50;4134754;28;20486;-68
2021/06/25 07:15:56;;;;;;;5.65;4.78;;;18.10;99.90;;;17.35;91.64;101770.00;4136038;28;20030;-68
2021/06/25 07:17:58;;;;;;;6.07;4.82;;;18.00;99.90;;;17.18;91.39;101760.44;4134840;28;20568;-68
2021/06/25 07:19:59;;;;;;;6.32;4.22;;;18.00;99.90;;;17.27;91.37;101766.56;4135606;28;20034;-68
2021/06/25 07:22:00;;;;;;;6.82;5.20;;;18.00;99.90;;;17.15;91.63;101768.78;4134873;28;20576;-68
2021/06/25 07:24:02;;;;;;;7.32;6.18;;;17.90;99.90;;;17.14;91.58;101767.16;4135888;28;20030;-68
2021/06/25 07:26:03;;;;;;;6.10;4.90;;;17.90;99.90;;;17.07;91.67;101767.00;4134593;28;20081;-68
2021/06/25 07:28:04;;;;;;;8.23;6.05;;;17.90;99.90;;;16.71;92.60;101770.28;4134682;28;20034;-68
2021/06/25 07:30:07;;;;;;;9.05;5.72;;;17.80;99.90;;;16.79;93.26;101770.25;4135811;28;20061;-68
2021/06/25 07:32:08;;;;;;;7.72;4.90;;;17.70;99.90;;;16.93;92.32;101764.22;4134711;28;20114;-68
2021/06/25 07:34:09;;;;;;;6.75;5.25;;;17.70;99.90;;;16.83;94.02;101769.75;4135888;28;20038;-68
2021/06/25 07:36:10;;;;;;;7.97;5.22;;;17.70;99.90;;;17.00;93.55;101781.19;4135514;28;20106;-68
2021/06/25 07:38:11;;;;;;;5.57;4.32;;;17.70;99.90;;;17.10;93.40;101766.66;4135693;28;20769;-68
2021/06/25 07:40:12;;;;;;;8.13;5.05;;;17.80;99.90;;;17.04;95.98;101774.50;4135594;28;20034;-68
2021/06/25 07:42:13;;;;;;;7.15;5.35;;;17.80;99.90;;;17.02;96.21;101765.88;4135745;28;20349;-68
2021/06/25 07:44:14;;;;;;;7.53;5.30;;;17.80;99.90;;;17.21;94.97;101773.41;4134601;28;20558;-68
2021/06/25 07:46:15;;;;;;;5.28;4.78;;;17.90;99.90;;;17.35;94.16;101779.88;4166776;28;20064;-68
2021/06/25 07:48:16;;;;;;;6.57;5.30;;;17.90;99.90;;;17.10;95.54;101769.31;4134524;28;20037;-68
2021/06/25 07:50:18;;;;;;;7.75;5.43;;;18.00;99.90;;;17.25;96.08;101766.75;4133983;28;20032;-68
2021/06/25 07:52:20;;;;;;;6.93;5.70;;;18.00;99.90;;;17.42;95.09;101765.66;4135652;28;20038;-68
2021/06/25 07:54:20;;;;;;;8.60;5.72;;;18.10;99.90;;;17.57;95.45;101774.59;4134331;28;20030;-68
2021/06/25 07:56:21;;;;;;;6.82;6.10;;;18.20;99.90;;;17.60;95.19;101779.56;4135777;28;20088;-68
2021/06/25 07:58:22;;;;;;;6.45;5.25;;;18.30;99.90;;;17.63;95.79;101773.88;4134315;28;20027;-68
2021/06/25 08:00:23;;;;;;;7.53;5.80;;;18.40;99.90;;;17.42;96.30;101762.97;4134449;28;20023;-68
2021/06/25 08:02:24;;;;;;;7.30;5.97;;;18.40;99.90;;;16.95;98.27;101767.53;4134262;28;20433;-68
2021/06/25 08:04:27;;;;;;;7.03;5.80;;;18.30;99.90;;;17.26;98.29;101767.59;4135550;28;20023;-68
2021/06/25 08:06:29;;;;;;;7.45;5.68;;;18.30;99.90;;;17.39;97.31;101762.50;4135278;28;20094;-68
2021/06/25 08:08:30;;;;;;;7.68;5.47;;;18.40;99.90;;;17.45;97.34;101741.28;4135525;28;20057;-68
2021/06/25 08:10:32;;;;;;;9.52;5.85;;;18.50;99.90;;;17.69;96.29;101757.16;4135403;28;20018;-68
2021/06/25 08:12:33;;;;;;;6.70;5.50;;;18.60;99.90;;;17.79;96.77;101754.28;4134293;28;20030;-68
2021/06/25 08:14:34;;;;;;;8.00;5.82;;;18.70;99.90;;;17.80;97.07;101749.75;4134386;28;20438;-68
2021/06/25 08:16:35;;;;;;;9.65;6.07;;;18.80;99.90;;;17.83;96.89;101746.75;4134286;28;20027;-67
2021/06/25 08:18:36;;;;;;;7.68;5.55;;;18.90;99.90;;;17.66;96.64;101754.03;4136317;28;20019;-68
2021/06/25 08:20:37;;;;;;;7.47;5.95;;;18.90;99.90;;;17.97;94.84;101738.78;4137357;28;20045;-68
2021/06/25 08:22:38;;;;;;;9.48;6.05;;;19.00;99.90;;;18.05;94.39;101746.72;4138587;28;20026;-68
2021/06/25 08:24:39;;;;;;;8.13;6.28;;;19.20;99.90;;;18.15;94.47;101752.63;4153362;28;20548;-68
2021/06/25 08:26:40;;;;;;;6.93;6.10;;;19.30;99.90;;;18.18;94.33;101738.09;4137133;28;20054;-68
2021/06/25 08:28:41;;;;;;;7.35;6.18;;;19.40;99.90;;;18.35;94.48;101747.59;4138467;28;20034;-68
2021/06/25 08:30:42;;;;;;;7.28;6.03;;;19.50;99.90;;;18.48;95.71;101741.63;4138359;28;20022;-68
2021/06/25 08:32:44;;;;;;;7.95;5.60;;;19.70;99.90;;;18.86;94.93;101735.19;4138326;28;20077;-68
2021/06/25 08:34:45;;;;;;;7.75;5.03;;;20.10;99.90;;;19.15;92.67;101739.66;4136756;28;20034;-68